PWSweather.com
Personal Weather Stations
Station Observations
CAPEBRETON
Mira Road, Sydney, NS

Mira RoadSydney, NS

Lat: 46.1207292, Lon: -60.1594642

Elevation: 175

Station Type: LaCrosse Weather Pro Center 2800 Series

http://pwscapebreton.weebly.com/

Latest ConditionsUpdated 2:07:27 PM GMT-04:56 Tuesday, Apr 28, 2015
Currently Today's Max Today's Min Today's Average
Temperature 42.8°F6.0°C 43.0°F6.1°C 33.3°F0.7°C 35.8°F2.1°C
Dew Point 38.4°F3.6°C 38.9°F3.8°C 31.1°F-0.5°C 33.4°F0.8°C
Winds 1.1 mph ESE1.8 kmh ESE 3.3 mph N5.3 kmh N - 1.2 mph 1.9 kmh
Wind Gusts 2.5 mph4.0 kmh 4.9 mph7.9 kmh - -
Humidity 84% 93% 84% 91%
Pressure 29.22 in989.5 mb 29.55 in1000.7 mb 29.20 in988.8 mb -
Hour Temp Dew Point Humidity Winds Wind Gusts Pressure Precip Precip Rate Daily Precip Total
02:07 PM 42.8°F6.0°C 38.4°F3.6°C 84% 1.1 mph ESE1.8 kmh ESE 2.5 mph4.0 kmh 29.22 in989.5 mb 0.00 in0.0 mm 0.00 in0.0 mm 0.00 in0.0 mm
02:02 PM 42.7°F5.9°C 38.4°F3.6°C 85% 0.8 mph WSW1.3 kmh WSW 2.2 mph3.5 kmh 29.22 in989.5 mb 0.00 in0.0 mm 0.00 in0.0 mm 0.00 in0.0 mm
01:57 PM 43.0°F6.1°C 38.8°F3.8°C 85% 1.2 mph NNW1.9 kmh NNW 2.0 mph3.2 kmh 29.22 in989.5 mb 0.00 in0.0 mm 0.00 in0.0 mm 0.00 in0.0 mm
01:52 PM 42.8°F6.0°C 38.6°F3.7°C 85% 0.5 mph SE0.8 kmh SE 2.7 mph4.3 kmh 29.22 in989.5 mb 0.00 in0.0 mm 0.00 in0.0 mm 0.00 in0.0 mm
01:47 PM 42.8°F6.0°C 38.9°F3.8°C 86% 1.2 mph SE1.9 kmh SE 2.7 mph4.3 kmh 29.22 in989.5 mb 0.00 in0.0 mm 0.00 in0.0 mm 0.00 in0.0 mm
01:42 PM 42.7°F5.9°C 38.7°F3.7°C 86% 0.6 mph WSW1.0 kmh WSW 1.8 mph2.9 kmh 29.22 in989.5 mb 0.00 in0.0 mm 0.00 in0.0 mm 0.00 in0.0 mm
01:37 PM 42.5°F5.8°C 38.9°F3.8°C 87% 0.8 mph SE1.3 kmh SE 1.8 mph2.9 kmh 29.22 in989.5 mb 0.00 in0.0 mm 0.00 in0.0 mm 0.00 in0.0 mm
01:32 PM 41.9°F5.5°C 38.4°F3.6°C 87% 0.7 mph NNW1.1 kmh NNW 1.6 mph2.6 kmh 29.22 in989.5 mb 0.00 in0.0 mm 0.00 in0.0 mm 0.00 in0.0 mm
01:27 PM 41.6°F5.3°C 38.0°F3.3°C 87% 0.8 mph S1.3 kmh S 1.6 mph2.6 kmh 29.22 in989.5 mb 0.00 in0.0 mm 0.00 in0.0 mm 0.00 in0.0 mm
01:22 PM 41.4°F5.2°C 37.8°F3.2°C 87% 0.6 mph WNW1.0 kmh WNW 1.1 mph1.8 kmh 29.21 in989.2 mb 0.00 in0.0 mm 0.00 in0.0 mm 0.00 in0.0 mm
01:17 PM 41.0°F5.0°C 37.5°F3.1°C 87% 0.4 mph NW0.6 kmh NW 1.1 mph1.8 kmh 29.21 in989.2 mb 0.00 in0.0 mm 0.00 in0.0 mm 0.00 in0.0 mm
01:12 PM 40.9°F4.9°C 37.3°F2.9°C 87% 0.4 mph ESE0.6 kmh ESE 1.3 mph2.1 kmh 29.21 in989.2 mb 0.00 in0.0 mm 0.00 in0.0 mm 0.00 in0.0 mm
01:07 PM 40.7°F4.8°C 37.1°F2.8°C 87% 0.7 mph NNW1.1 kmh NNW 1.3 mph2.1 kmh 29.21 in989.2 mb 0.00 in0.0 mm 0.00 in0.0 mm 0.00 in0.0 mm
01:02 PM 41.0°F5.0°C 37.7°F3.2°C 88% 0.8 mph NNW1.3 kmh NNW 1.3 mph2.1 kmh 29.21 in989.2 mb 0.00 in0.0 mm 0.00 in0.0 mm 0.00 in0.0 mm
12:57 PM 40.9°F4.9°C 37.5°F3.1°C 88% 0.7 mph NNW1.1 kmh NNW 1.3 mph2.1 kmh 29.21 in989.2 mb 0.00 in0.0 mm 0.00 in0.0 mm 0.00 in0.0 mm
12:52 PM 40.9°F4.9°C 37.9°F3.3°C 89% 0.9 mph NNE1.4 kmh NNE 1.3 mph2.1 kmh 29.21 in989.2 mb 0.00 in0.0 mm 0.00 in0.0 mm 0.00 in0.0 mm
12:47 PM 40.3°F4.6°C 37.4°F3.0°C 89% 0.5 mph ENE0.8 kmh ENE 1.1 mph1.8 kmh 29.21 in989.2 mb 0.00 in0.0 mm 0.00 in0.0 mm 0.00 in0.0 mm
12:42 PM 40.3°F4.6°C 37.4°F3.0°C 89% 0.6 mph 1.0 kmh 1.3 mph2.1 kmh 29.21 in989.2 mb 0.00 in0.0 mm 0.00 in0.0 mm 0.00 in0.0 mm
12:37 PM 40.1°F4.5°C 37.2°F2.9°C 89% 0.7 mph WSW1.1 kmh WSW 1.3 mph2.1 kmh 29.21 in989.2 mb 0.00 in0.0 mm 0.00 in0.0 mm 0.00 in0.0 mm
12:32 PM 40.1°F4.5°C 36.5°F2.5°C 87% 0.8 mph E1.3 kmh E 1.3 mph2.1 kmh 29.20 in988.8 mb 0.00 in0.0 mm 0.00 in0.0 mm 0.00 in0.0 mm
12:27 PM 40.0°F4.4°C 37.5°F3.1°C 91% 0.4 mph NNE0.6 kmh NNE 2.0 mph3.2 kmh 29.20 in988.8 mb 0.00 in0.0 mm 0.00 in0.0 mm 0.00 in0.0 mm
12:22 PM 39.6°F4.2°C 37.2°F2.9°C 91% 0.2 mph WSW0.3 kmh WSW 2.0 mph3.2 kmh 29.20 in988.8 mb 0.00 in0.0 mm 0.00 in0.0 mm 0.00 in0.0 mm
12:17 PM 39.6°F4.2°C 37.2°F2.9°C 91% 0.9 mph W1.4 kmh W 2.0 mph3.2 kmh 29.20 in988.8 mb 0.00 in0.0 mm 0.00 in0.0 mm 0.00 in0.0 mm
12:12 PM 39.4°F4.1°C 37.3°F2.9°C 92% 0.9 mph NNE1.4 kmh NNE 1.3 mph2.1 kmh 29.20 in988.8 mb 0.00 in0.0 mm 0.00 in0.0 mm 0.00 in0.0 mm
12:07 PM 39.2°F4.0°C 37.1°F2.8°C 92% 0.8 mph NE1.3 kmh NE 1.3 mph2.1 kmh 29.20 in988.8 mb 0.00 in0.0 mm 0.00 in0.0 mm 0.00 in0.0 mm
12:02 PM 38.7°F3.7°C 36.5°F2.5°C 92% 0.6 mph N1.0 kmh N 1.3 mph2.1 kmh 29.20 in988.8 mb 0.00 in0.0 mm 0.00 in0.0 mm 0.00 in0.0 mm
11:57 AM 38.2°F3.4°C 36.0°F2.2°C 92% 0.7 mph N1.1 kmh N 1.3 mph2.1 kmh 29.20 in988.8 mb 0.00 in0.0 mm 0.00 in0.0 mm 0.00 in0.0 mm
11:52 AM 37.4°F3.0°C 35.3°F1.8°C 92% 0.5 mph N0.8 kmh N 1.8 mph2.9 kmh 29.20 in988.8 mb 0.00 in0.0 mm 0.00 in0.0 mm 0.00 in0.0 mm
11:47 AM 37.1°F2.8°C 34.9°F1.6°C 92% 1.3 mph N2.1 kmh N 1.8 mph2.9 kmh 29.20 in988.8 mb 0.00 in0.0 mm 0.00 in0.0 mm 0.00 in0.0 mm
11:42 AM 36.7°F2.6°C 34.6°F1.4°C 92% 1.0 mph N1.6 kmh N 2.0 mph3.2 kmh 29.20 in988.8 mb 0.00 in0.0 mm 0.00 in0.0 mm 0.00 in0.0 mm
11:37 AM 36.7°F2.6°C 34.6°F1.4°C 92% 1.4 mph N2.3 kmh N 2.0 mph3.2 kmh 29.20 in988.8 mb 0.00 in0.0 mm 0.00 in0.0 mm 0.00 in0.0 mm
11:32 AM 37.1°F2.8°C 34.9°F1.6°C 92% 1.2 mph 1.9 kmh 2.0 mph3.2 kmh 29.20 in988.8 mb 0.00 in0.0 mm 0.00 in0.0 mm 0.00 in0.0 mm
11:27 AM 37.1°F2.8°C 34.9°F1.6°C 92% 0.9 mph N1.4 kmh N 1.3 mph2.1 kmh 29.21 in989.2 mb 0.00 in0.0 mm 0.00 in0.0 mm 0.00 in0.0 mm
11:22 AM 36.9°F2.7°C 34.7°F1.5°C 92% 0.6 mph N1.0 kmh N 1.8 mph2.9 kmh 29.21 in989.2 mb 0.00 in0.0 mm 0.00 in0.0 mm 0.00 in0.0 mm
11:17 AM 36.5°F2.5°C 34.4°F1.3°C 92% 0.7 mph N1.1 kmh N 1.8 mph2.9 kmh 29.21 in989.2 mb 0.00 in0.0 mm 0.00 in0.0 mm 0.00 in0.0 mm
11:11 AM 36.7°F2.6°C 34.6°F1.4°C 92% 0.9 mph NW1.4 kmh NW 1.8 mph2.9 kmh 29.21 in989.2 mb 0.00 in0.0 mm 0.00 in0.0 mm 0.00 in0.0 mm
11:06 AM 36.4°F2.4°C 34.2°F1.2°C 92% 0.8 mph NW1.3 kmh NW 1.8 mph2.9 kmh 29.21 in989.2 mb 0.00 in0.0 mm 0.00 in0.0 mm 0.00 in0.0 mm
11:01 AM 36.2°F2.3°C 34.0°F1.1°C 92% 0.9 mph NW1.4 kmh NW 2.2 mph3.5 kmh 29.21 in989.2 mb 0.00 in0.0 mm 0.00 in0.0 mm 0.00 in0.0 mm
10:56 AM 36.4°F2.4°C 34.2°F1.2°C 92% 1.7 mph NW2.7 kmh NW 2.2 mph3.5 kmh 29.21 in989.2 mb 0.00 in0.0 mm 0.00 in0.0 mm 0.00 in0.0 mm
10:51 AM 36.5°F2.5°C 34.4°F1.3°C 92% 0.6 mph N1.0 kmh N 1.3 mph2.1 kmh 29.21 in989.2 mb 0.00 in0.0 mm 0.00 in0.0 mm 0.00 in0.0 mm
10:46 AM 36.5°F2.5°C 34.4°F1.3°C 92% 0.9 mph N1.4 kmh N 1.3 mph2.1 kmh 29.21 in989.2 mb 0.00 in0.0 mm 0.00 in0.0 mm 0.00 in0.0 mm
10:41 AM 36.5°F2.5°C 34.4°F1.3°C 92% 0.5 mph N0.8 kmh N 1.3 mph2.1 kmh 29.21 in989.2 mb 0.00 in0.0 mm 0.00 in0.0 mm 0.00 in0.0 mm
10:36 AM 36.4°F2.4°C 34.2°F1.2°C 92% 1.0 mph N1.6 kmh N 1.8 mph2.9 kmh 29.21 in989.2 mb 0.00 in0.0 mm 0.00 in0.0 mm 0.00 in0.0 mm
10:31 AM 36.0°F2.2°C 33.8°F1.0°C 92% 0.7 mph N1.1 kmh N 1.8 mph2.9 kmh 29.21 in989.2 mb 0.00 in0.0 mm 0.00 in0.0 mm 0.00 in0.0 mm
10:26 AM 36.0°F2.2°C 33.8°F1.0°C 92% 1.4 mph NNW2.3 kmh NNW 1.8 mph2.9 kmh 29.21 in989.2 mb 0.00 in0.0 mm 0.00 in0.0 mm 0.00 in0.0 mm
10:21 AM 35.8°F2.1°C 33.7°F0.9°C 92% 1.3 mph NW2.1 kmh NW 2.5 mph4.0 kmh 29.21 in989.2 mb 0.00 in0.0 mm 0.00 in0.0 mm 0.00 in0.0 mm
10:16 AM 35.6°F2.0°C 33.8°F1.0°C 93% 1.3 mph NNW2.1 kmh NNW 2.5 mph4.0 kmh 29.22 in989.5 mb 0.00 in0.0 mm 0.00 in0.0 mm 0.00 in0.0 mm
10:11 AM 36.0°F2.2°C 34.1°F1.2°C 93% 1.4 mph N2.3 kmh N 1.8 mph2.9 kmh 29.22 in989.5 mb 0.00 in0.0 mm 0.00 in0.0 mm 0.00 in0.0 mm
10:06 AM 36.0°F2.2°C 34.1°F1.2°C 93% 1.3 mph N2.1 kmh N 1.6 mph2.6 kmh 29.22 in989.5 mb 0.00 in0.0 mm 0.00 in0.0 mm 0.00 in0.0 mm
10:01 AM 35.8°F2.1°C 33.9°F1.1°C 93% 0.6 mph N1.0 kmh N 1.1 mph1.8 kmh 29.22 in989.5 mb 0.00 in0.0 mm 0.00 in0.0 mm 0.00 in0.0 mm
09:56 AM 35.6°F2.0°C 33.8°F1.0°C 93% 0.8 mph N1.3 kmh N 2.0 mph3.2 kmh 29.22 in989.5 mb 0.00 in0.0 mm 0.00 in0.0 mm 0.00 in0.0 mm
09:51 AM 35.5°F1.9°C 33.6°F0.9°C 93% 1.0 mph N1.6 kmh N 2.0 mph3.2 kmh 29.22 in989.5 mb 0.00 in0.0 mm 0.00 in0.0 mm 0.00 in0.0 mm
09:46 AM 35.3°F1.8°C 33.4°F0.8°C 93% 1.1 mph N1.8 kmh N 2.5 mph4.0 kmh 29.22 in989.5 mb 0.00 in0.0 mm 0.00 in0.0 mm 0.00 in0.0 mm
09:41 AM 35.3°F1.8°C 33.4°F0.8°C 93% 1.8 mph N2.9 kmh N 2.5 mph4.0 kmh 29.23 in989.8 mb 0.00 in0.0 mm 0.00 in0.0 mm 0.00 in0.0 mm
09:36 AM 35.3°F1.8°C 33.4°F0.8°C 93% 0.8 mph NNE1.3 kmh NNE 2.5 mph4.0 kmh 29.22 in989.5 mb 0.00 in0.0 mm 0.00 in0.0 mm 0.00 in0.0 mm
09:31 AM 35.1°F1.7°C 33.2°F0.7°C 93% 1.4 mph N2.3 kmh N 2.9 mph4.7 kmh 29.22 in989.5 mb 0.00 in0.0 mm 0.00 in0.0 mm 0.00 in0.0 mm
09:26 AM 35.3°F1.8°C 33.4°F0.8°C 93% 2.1 mph N3.4 kmh N 2.9 mph4.7 kmh 29.23 in989.8 mb 0.00 in0.0 mm 0.00 in0.0 mm 0.00 in0.0 mm
09:21 AM 35.3°F1.8°C 33.4°F0.8°C 93% 1.1 mph N1.8 kmh N 2.5 mph4.0 kmh 29.23 in989.8 mb 0.00 in0.0 mm 0.00 in0.0 mm 0.00 in0.0 mm
09:16 AM 34.9°F1.6°C 33.0°F0.6°C 93% 1.7 mph NNE2.7 kmh NNE 2.7 mph4.3 kmh 29.23 in989.8 mb 0.00 in0.0 mm 0.00 in0.0 mm 0.00 in0.0 mm
09:11 AM 34.9°F1.6°C 33.0°F0.6°C 93% 1.7 mph N2.7 kmh N 2.9 mph4.7 kmh 29.23 in989.8 mb 0.00 in0.0 mm 0.00 in0.0 mm 0.00 in0.0 mm
09:06 AM 34.7°F1.5°C 32.9°F0.5°C 93% 1.7 mph NNW2.7 kmh NNW 3.1 mph5.0 kmh 29.23 in989.8 mb 0.00 in0.0 mm 0.00 in0.0 mm 0.00 in0.0 mm
09:01 AM 34.7°F1.5°C 32.9°F0.5°C 93% 2.0 mph NNW3.2 kmh NNW 3.1 mph5.0 kmh 29.24 in990.2 mb 0.00 in0.0 mm 0.00 in0.0 mm 0.00 in0.0 mm
08:56 AM 34.9°F1.6°C 33.0°F0.6°C 93% 1.5 mph N2.4 kmh N 2.9 mph4.7 kmh 29.24 in990.2 mb 0.00 in0.0 mm 0.00 in0.0 mm 0.00 in0.0 mm
08:51 AM 34.6°F1.4°C 32.7°F0.4°C 93% 1.5 mph N2.4 kmh N 2.9 mph4.7 kmh 29.24 in990.2 mb 0.00 in0.0 mm 0.00 in0.0 mm 0.00 in0.0 mm
08:46 AM 34.6°F1.4°C 32.7°F0.4°C 93% 1.8 mph N2.9 kmh N 2.7 mph4.3 kmh 29.24 in990.2 mb 0.00 in0.0 mm 0.00 in0.0 mm 0.00 in0.0 mm
08:41 AM 34.7°F1.5°C 32.9°F0.5°C 93% 1.4 mph NNW2.3 kmh NNW 2.9 mph4.7 kmh 29.24 in990.2 mb 0.00 in0.0 mm 0.00 in0.0 mm 0.00 in0.0 mm
08:36 AM 34.7°F1.5°C 32.9°F0.5°C 93% 1.9 mph N3.1 kmh N 2.9 mph4.7 kmh 29.24 in990.2 mb 0.00 in0.0 mm 0.00 in0.0 mm 0.00 in0.0 mm
08:31 AM 34.6°F1.4°C 32.7°F0.4°C 93% 2.0 mph N3.2 kmh N 2.9 mph4.7 kmh 29.24 in990.2 mb 0.00 in0.0 mm 0.00 in0.0 mm 0.00 in0.0 mm
08:26 AM 34.6°F1.4°C 32.7°F0.4°C 93% 1.8 mph NNW2.9 kmh NNW 3.4 mph5.5 kmh 29.24 in990.2 mb 0.00 in0.0 mm 0.00 in0.0 mm 0.00 in0.0 mm
08:21 AM 34.6°F1.4°C 32.7°F0.4°C 93% 1.4 mph N2.3 kmh N 4.0 mph6.4 kmh 29.24 in990.2 mb 0.00 in0.0 mm 0.00 in0.0 mm 0.00 in0.0 mm
08:16 AM 34.4°F1.3°C 32.5°F0.3°C 93% 2.2 mph N3.5 kmh N 4.0 mph6.4 kmh 29.25 in990.5 mb 0.00 in0.0 mm 0.00 in0.0 mm 0.00 in0.0 mm
08:11 AM 34.4°F1.3°C 32.5°F0.3°C 93% 1.2 mph N1.9 kmh N 1.8 mph2.9 kmh 29.25 in990.5 mb 0.00 in0.0 mm 0.00 in0.0 mm 0.00 in0.0 mm
08:06 AM 34.2°F1.2°C 32.3°F0.2°C 93% 1.2 mph NNW1.9 kmh NNW 2.9 mph4.7 kmh 29.25 in990.5 mb 0.00 in0.0 mm 0.00 in0.0 mm 0.00 in0.0 mm
08:01 AM 34.2°F1.2°C 32.3°F0.2°C 93% 1.4 mph N2.3 kmh N 2.9 mph4.7 kmh 29.25 in990.5 mb 0.00 in0.0 mm 0.00 in0.0 mm 0.00 in0.0 mm
07:56 AM 34.4°F1.3°C 32.5°F0.3°C 93% 1.6 mph N2.6 kmh N 2.2 mph3.5 kmh 29.25 in990.5 mb 0.00 in0.0 mm 0.00 in0.0 mm 0.00 in0.0 mm
07:51 AM 34.4°F1.3°C 32.5°F0.3°C 93% 1.0 mph N1.6 kmh N 3.1 mph5.0 kmh 29.25 in990.5 mb 0.00 in0.0 mm 0.00 in0.0 mm 0.00 in0.0 mm
07:46 AM 34.2°F1.2°C 32.3°F0.2°C 93% 1.6 mph N2.6 kmh N 3.1 mph5.0 kmh 29.25 in990.5 mb 0.00 in0.0 mm 0.00 in0.0 mm 0.00 in0.0 mm
07:41 AM 34.2°F1.2°C 32.3°F0.2°C 93% 1.1 mph N1.8 kmh N 2.2 mph3.5 kmh 29.26 in990.9 mb 0.00 in0.0 mm 0.00 in0.0 mm 0.00 in0.0 mm
07:36 AM 34.2°F1.2°C 32.3°F0.2°C 93% 1.0 mph NW1.6 kmh NW 2.7 mph4.3 kmh 29.26 in990.9 mb 0.00 in0.0 mm 0.00 in0.0 mm 0.00 in0.0 mm
07:31 AM 33.8°F1.0°C 32.0°F0.0°C 93% 1.0 mph NNW1.6 kmh NNW 2.7 mph4.3 kmh 29.26 in990.9 mb 0.00 in0.0 mm 0.00 in0.0 mm 0.00 in0.0 mm
07:26 AM 34.0°F1.1°C 32.1°F0.1°C 93% 1.5 mph NW2.4 kmh NW 2.5 mph4.0 kmh 29.26 in990.9 mb 0.00 in0.0 mm 0.00 in0.0 mm 0.00 in0.0 mm
07:21 AM 33.8°F1.0°C 32.0°F0.0°C 93% 0.4 mph NNW0.6 kmh NNW 0.9 mph1.4 kmh 29.26 in990.9 mb 0.00 in0.0 mm 0.00 in0.0 mm 0.00 in0.0 mm
07:16 AM 33.8°F1.0°C 32.0°F0.0°C 93% 0.6 mph NW1.0 kmh NW 1.1 mph1.8 kmh 29.27 in991.2 mb 0.00 in0.0 mm 0.00 in0.0 mm 0.00 in0.0 mm
07:11 AM 33.7°F0.9°C 31.8°F-0.1°C 93% 0.7 mph NNW1.1 kmh NNW 1.1 mph1.8 kmh 29.27 in991.2 mb 0.00 in0.0 mm 0.00 in0.0 mm 0.00 in0.0 mm
07:06 AM 33.5°F0.8°C 31.3°F-0.4°C 92% 0.4 mph N0.6 kmh N 1.6 mph2.6 kmh 29.27 in991.2 mb 0.00 in0.0 mm 0.00 in0.0 mm 0.00 in0.0 mm
07:01 AM 33.5°F0.8°C 31.3°F-0.4°C 92% 0.9 mph N1.4 kmh N 2.2 mph3.5 kmh 29.27 in991.2 mb 0.00 in0.0 mm 0.00 in0.0 mm 0.00 in0.0 mm
06:56 AM 33.5°F0.8°C 31.3°F-0.4°C 92% 0.5 mph NNW0.8 kmh NNW 2.2 mph3.5 kmh 29.28 in991.5 mb 0.00 in0.0 mm 0.00 in0.0 mm 0.00 in0.0 mm
06:51 AM 33.5°F0.8°C 31.3°F-0.4°C 92% 0.9 mph NW1.4 kmh NW 2.2 mph3.5 kmh 29.28 in991.5 mb 0.00 in0.0 mm 0.00 in0.0 mm 0.00 in0.0 mm
06:46 AM 33.5°F0.8°C 31.3°F-0.4°C 92% 0.5 mph NNW0.8 kmh NNW 1.8 mph2.9 kmh 29.28 in991.5 mb 0.00 in0.0 mm 0.00 in0.0 mm 0.00 in0.0 mm
06:41 AM 33.5°F0.8°C 31.3°F-0.4°C 92% 1.2 mph N1.9 kmh N 1.8 mph2.9 kmh 29.29 in991.9 mb 0.00 in0.0 mm 0.00 in0.0 mm 0.00 in0.0 mm
06:36 AM 33.5°F0.8°C 31.3°F-0.4°C 92% 0.6 mph WNW1.0 kmh WNW 1.1 mph1.8 kmh 29.29 in991.9 mb 0.00 in0.0 mm 0.00 in0.0 mm 0.00 in0.0 mm
06:31 AM 33.5°F0.8°C 31.3°F-0.4°C 92% 0.3 mph 0.5 kmh 1.8 mph2.9 kmh 29.29 in991.9 mb 0.00 in0.0 mm 0.00 in0.0 mm 0.00 in0.0 mm
06:26 AM 33.5°F0.8°C 31.3°F-0.4°C 92% 0.8 mph 1.3 kmh 1.8 mph2.9 kmh 29.30 in992.2 mb 0.00 in0.0 mm 0.00 in0.0 mm 0.00 in0.0 mm
06:21 AM 33.5°F0.8°C 31.3°F-0.4°C 92% 1.0 mph N1.6 kmh N 1.8 mph2.9 kmh 29.30 in992.2 mb 0.00 in0.0 mm 0.00 in0.0 mm 0.00 in0.0 mm
06:16 AM 33.5°F0.8°C 31.3°F-0.4°C 92% 0.9 mph N1.4 kmh N 1.6 mph2.6 kmh 29.31 in992.6 mb 0.00 in0.0 mm 0.00 in0.0 mm 0.00 in0.0 mm
06:11 AM 33.5°F0.8°C 31.3°F-0.4°C 92% 0.6 mph N1.0 kmh N 1.8 mph2.9 kmh 29.32 in992.9 mb 0.00 in0.0 mm 0.00 in0.0 mm 0.00 in0.0 mm
06:06 AM 33.5°F0.8°C 31.3°F-0.4°C 92% 1.0 mph NW1.6 kmh NW 1.8 mph2.9 kmh 29.32 in992.9 mb 0.00 in0.0 mm 0.00 in0.0 mm 0.00 in0.0 mm
06:01 AM 33.5°F0.8°C 31.3°F-0.4°C 92% 0.8 mph N1.3 kmh N 1.1 mph1.8 kmh 29.32 in992.9 mb 0.00 in0.0 mm 0.00 in0.0 mm 0.00 in0.0 mm
05:56 AM 33.5°F0.8°C 31.3°F-0.4°C 92% 0.4 mph N0.6 kmh N 0.9 mph1.4 kmh 29.32 in992.9 mb 0.00 in0.0 mm 0.00 in0.0 mm 0.00 in0.0 mm
05:51 AM 33.5°F0.8°C 31.3°F-0.4°C 92% 0.2 mph NNW0.3 kmh NNW 0.9 mph1.4 kmh 29.32 in992.9 mb 0.00 in0.0 mm 0.00 in0.0 mm 0.00 in0.0 mm
05:46 AM 33.5°F0.8°C 31.3°F-0.4°C 92% 0.9 mph NNW1.4 kmh NNW 0.9 mph1.4 kmh 29.32 in992.9 mb 0.00 in0.0 mm 0.00 in0.0 mm 0.00 in0.0 mm
05:41 AM 33.3°F0.7°C 31.1°F-0.5°C 92% 0.3 mph 0.5 kmh 0.4 mph0.6 kmh 29.32 in992.9 mb 0.00 in0.0 mm 0.00 in0.0 mm 0.00 in0.0 mm
05:36 AM 33.3°F0.7°C 31.1°F-0.5°C 92% Calm Calm 0.4 mph0.6 kmh 29.33 in993.2 mb 0.00 in0.0 mm 0.00 in0.0 mm 0.00 in0.0 mm
05:31 AM 33.5°F0.8°C 31.3°F-0.4°C 92% Calm Calm 0.4 mph0.6 kmh 29.33 in993.2 mb 0.00 in0.0 mm 0.00 in0.0 mm 0.00 in0.0 mm
05:26 AM 33.5°F0.8°C 31.3°F-0.4°C 92% 0.2 mph 0.3 kmh 0.4 mph0.6 kmh 29.34 in993.6 mb 0.00 in0.0 mm 0.00 in0.0 mm 0.00 in0.0 mm
05:21 AM 33.5°F0.8°C 31.6°F-0.2°C 93% Calm Calm 0.9 mph1.4 kmh 29.34 in993.6 mb 0.00 in0.0 mm 0.00 in0.0 mm 0.00 in0.0 mm
05:16 AM 33.5°F0.8°C 31.6°F-0.2°C 93% Calm Calm 2.0 mph3.2 kmh 29.34 in993.6 mb 0.00 in0.0 mm 0.00 in0.0 mm 0.00 in0.0 mm
05:11 AM 33.5°F0.8°C 31.6°F-0.2°C 93% 0.9 mph NNW1.4 kmh NNW 2.0 mph3.2 kmh 29.35 in993.9 mb 0.00 in0.0 mm 0.00 in0.0 mm 0.00 in0.0 mm
05:06 AM 33.5°F0.8°C 31.6°F-0.2°C 93% 0.8 mph NNW1.3 kmh NNW 2.0 mph3.2 kmh 29.35 in993.9 mb 0.00 in0.0 mm 0.00 in0.0 mm 0.00 in0.0 mm
05:01 AM 33.7°F0.9°C 31.5°F-0.3°C 92% 0.6 mph N1.0 kmh N 2.0 mph3.2 kmh 29.35 in993.9 mb 0.00 in0.0 mm 0.00 in0.0 mm 0.00 in0.0 mm
04:56 AM 33.7°F0.9°C 31.5°F-0.3°C 92% 0.9 mph N1.4 kmh N 1.8 mph2.9 kmh 29.36 in994.2 mb 0.00 in0.0 mm 0.00 in0.0 mm 0.00 in0.0 mm
04:51 AM 33.8°F1.0°C 31.7°F-0.2°C 92% 0.5 mph N0.8 kmh N 1.8 mph2.9 kmh 29.36 in994.2 mb 0.00 in0.0 mm 0.00 in0.0 mm 0.00 in0.0 mm
04:46 AM 33.8°F1.0°C 31.7°F-0.2°C 92% 1.3 mph N2.1 kmh N 2.0 mph3.2 kmh 29.37 in994.6 mb 0.00 in0.0 mm 0.00 in0.0 mm 0.00 in0.0 mm
04:41 AM 34.0°F1.1°C 31.9°F-0.1°C 92% 1.5 mph N2.4 kmh N 2.0 mph3.2 kmh 29.37 in994.6 mb 0.00 in0.0 mm 0.00 in0.0 mm 0.00 in0.0 mm
04:36 AM 34.2°F1.2°C 32.0°F0.0°C 92% 1.1 mph NNW1.8 kmh NNW 3.4 mph5.5 kmh 29.38 in994.9 mb 0.00 in0.0 mm 0.00 in0.0 mm 0.00 in0.0 mm
04:31 AM 34.2°F1.2°C 32.0°F0.0°C 92% 1.7 mph N2.7 kmh N 3.4 mph5.5 kmh 29.38 in994.9 mb 0.00 in0.0 mm 0.00 in0.0 mm 0.00 in0.0 mm
04:26 AM 34.2°F1.2°C 32.0°F0.0°C 92% 1.4 mph N2.3 kmh N 2.5 mph4.0 kmh 29.38 in994.9 mb 0.00 in0.0 mm 0.00 in0.0 mm 0.00 in0.0 mm
04:21 AM 34.4°F1.3°C 32.2°F0.1°C 92% 1.6 mph N2.6 kmh N 2.5 mph4.0 kmh 29.39 in995.3 mb 0.00 in0.0 mm 0.00 in0.0 mm 0.00 in0.0 mm
04:16 AM 34.4°F1.3°C 32.2°F0.1°C 92% 1.4 mph 2.3 kmh 3.1 mph5.0 kmh 29.39 in995.3 mb 0.00 in0.0 mm 0.00 in0.0 mm 0.00 in0.0 mm
04:11 AM 34.4°F1.3°C 32.2°F0.1°C 92% 2.1 mph N3.4 kmh N 3.4 mph5.5 kmh 29.39 in995.3 mb 0.00 in0.0 mm 0.00 in0.0 mm 0.00 in0.0 mm
04:05 AM 34.4°F1.3°C 32.2°F0.1°C 92% 2.0 mph 3.2 kmh 4.9 mph7.9 kmh 29.40 in995.6 mb 0.00 in0.0 mm 0.00 in0.0 mm 0.00 in0.0 mm
04:01 AM 34.4°F1.3°C 32.2°F0.1°C 92% 2.6 mph N4.2 kmh N 4.9 mph7.9 kmh 29.40 in995.6 mb 0.00 in0.0 mm 0.00 in0.0 mm 0.00 in0.0 mm
03:55 AM 34.6°F1.4°C 32.4°F0.2°C 92% 2.5 mph N4.0 kmh N 3.6 mph5.8 kmh 29.40 in995.6 mb 0.00 in0.0 mm 0.00 in0.0 mm 0.00 in0.0 mm
03:50 AM 34.6°F1.4°C 32.4°F0.2°C 92% 2.5 mph NNE4.0 kmh NNE 3.6 mph5.8 kmh 29.41 in995.9 mb 0.00 in0.0 mm 0.00 in0.0 mm 0.00 in0.0 mm
03:45 AM 34.7°F1.5°C 32.3°F0.2°C 91% 1.9 mph NNE3.1 kmh NNE 3.6 mph5.8 kmh 29.41 in995.9 mb 0.00 in0.0 mm 0.00 in0.0 mm 0.00 in0.0 mm
03:40 AM 34.9°F1.6°C 32.5°F0.3°C 91% 2.4 mph NNE3.9 kmh NNE 4.3 mph6.9 kmh 29.42 in996.3 mb 0.00 in0.0 mm 0.00 in0.0 mm 0.00 in0.0 mm
03:35 AM 35.3°F1.8°C 32.9°F0.5°C 91% 3.3 mph N5.3 kmh N 4.3 mph6.9 kmh 29.42 in996.3 mb 0.00 in0.0 mm 0.00 in0.0 mm 0.00 in0.0 mm
03:30 AM 35.3°F1.8°C 32.9°F0.5°C 91% 2.6 mph N4.2 kmh N 4.5 mph7.2 kmh 29.43 in996.6 mb 0.00 in0.0 mm 0.00 in0.0 mm 0.00 in0.0 mm
03:25 AM 35.5°F1.9°C 32.8°F0.4°C 90% 2.6 mph N4.2 kmh N 4.5 mph7.2 kmh 29.43 in996.6 mb 0.00 in0.0 mm 0.00 in0.0 mm 0.00 in0.0 mm
03:20 AM 35.5°F1.9°C 32.8°F0.4°C 90% 2.7 mph N4.3 kmh N 4.3 mph6.9 kmh 29.43 in996.6 mb 0.00 in0.0 mm 0.00 in0.0 mm 0.00 in0.0 mm
03:15 AM 35.6°F2.0°C 32.9°F0.5°C 90% 2.0 mph NNE3.2 kmh NNE 3.4 mph5.5 kmh 29.44 in997.0 mb 0.00 in0.0 mm 0.00 in0.0 mm 0.00 in0.0 mm
03:10 AM 35.6°F2.0°C 32.9°F0.5°C 90% 2.3 mph N3.7 kmh N 3.6 mph5.8 kmh 29.44 in997.0 mb 0.00 in0.0 mm 0.00 in0.0 mm 0.00 in0.0 mm
03:05 AM 35.8°F2.1°C 33.1°F0.6°C 90% 2.6 mph N4.2 kmh N 3.6 mph5.8 kmh 29.44 in997.0 mb 0.00 in0.0 mm 0.00 in0.0 mm 0.00 in0.0 mm
03:00 AM 35.8°F2.1°C 32.9°F0.5°C 89% 2.5 mph N4.0 kmh N 3.6 mph5.8 kmh 29.45 in997.3 mb 0.00 in0.0 mm 0.00 in0.0 mm 0.00 in0.0 mm
02:55 AM 35.8°F2.1°C 32.9°F0.5°C 89% 1.8 mph N2.9 kmh N 4.7 mph7.6 kmh 29.45 in997.3 mb 0.00 in0.0 mm 0.00 in0.0 mm 0.00 in0.0 mm
02:50 AM 35.8°F2.1°C 32.9°F0.5°C 89% 2.1 mph N3.4 kmh N 4.7 mph7.6 kmh 29.45 in997.3 mb 0.00 in0.0 mm 0.00 in0.0 mm 0.00 in0.0 mm
02:45 AM 36.0°F2.2°C 33.0°F0.6°C 89% 1.8 mph N2.9 kmh N 2.7 mph4.3 kmh 29.46 in997.6 mb 0.00 in0.0 mm 0.00 in0.0 mm 0.00 in0.0 mm
02:40 AM 36.0°F2.2°C 33.0°F0.6°C 89% 2.0 mph NNE3.2 kmh NNE 2.7 mph4.3 kmh 29.46 in997.6 mb 0.00 in0.0 mm 0.00 in0.0 mm 0.00 in0.0 mm
02:35 AM 36.0°F2.2°C 33.0°F0.6°C 89% 1.5 mph NNE2.4 kmh NNE 2.5 mph4.0 kmh 29.47 in998.0 mb 0.00 in0.0 mm 0.00 in0.0 mm 0.00 in0.0 mm
02:30 AM 36.0°F2.2°C 33.0°F0.6°C 89% 1.7 mph NNE2.7 kmh NNE 2.9 mph4.7 kmh 29.47 in998.0 mb 0.00 in0.0 mm 0.00 in0.0 mm 0.00 in0.0 mm
02:25 AM 35.8°F2.1°C 32.6°F0.3°C 88% 1.6 mph NE2.6 kmh NE 2.9 mph4.7 kmh 29.47 in998.0 mb 0.00 in0.0 mm 0.00 in0.0 mm 0.00 in0.0 mm
02:20 AM 35.8°F2.1°C 32.6°F0.3°C 88% 1.3 mph NNE2.1 kmh NNE 2.7 mph4.3 kmh 29.47 in998.0 mb 0.00 in0.0 mm 0.00 in0.0 mm 0.00 in0.0 mm
02:13 AM 35.8°F2.1°C 32.6°F0.3°C 88% 2.1 mph NNE3.4 kmh NNE 3.4 mph5.5 kmh 29.48 in998.3 mb 0.00 in0.0 mm 0.00 in0.0 mm 0.00 in0.0 mm
02:07 AM 35.6°F2.0°C 32.7°F0.4°C 89% 2.0 mph N3.2 kmh N 3.4 mph5.5 kmh 29.48 in998.3 mb 0.00 in0.0 mm 0.00 in0.0 mm 0.00 in0.0 mm
02:02 AM 35.3°F1.8°C 32.3°F0.2°C 89% 1.7 mph N2.7 kmh N 2.7 mph4.3 kmh 29.49 in998.6 mb 0.00 in0.0 mm 0.00 in0.0 mm 0.00 in0.0 mm
01:57 AM 35.1°F1.7°C 32.1°F0.1°C 89% 1.2 mph NNE1.9 kmh NNE 1.8 mph2.9 kmh 29.49 in998.6 mb 0.00 in0.0 mm 0.00 in0.0 mm 0.00 in0.0 mm
01:52 AM 34.9°F1.6°C 32.0°F0.0°C 89% 0.9 mph NNE1.4 kmh NNE 1.8 mph2.9 kmh 29.49 in998.6 mb 0.00 in0.0 mm 0.00 in0.0 mm 0.00 in0.0 mm
01:47 AM 34.9°F1.6°C 32.0°F0.0°C 89% 0.4 mph NNE0.6 kmh NNE 1.3 mph2.1 kmh 29.49 in998.6 mb 0.00 in0.0 mm 0.00 in0.0 mm 0.00 in0.0 mm
01:42 AM 35.1°F1.7°C 32.1°F0.1°C 89% 0.6 mph N1.0 kmh N 2.0 mph3.2 kmh 29.50 in999.0 mb 0.00 in0.0 mm 0.00 in0.0 mm 0.00 in0.0 mm
01:37 AM 34.9°F1.6°C 32.0°F0.0°C 89% 1.2 mph N1.9 kmh N 2.0 mph3.2 kmh 29.50 in999.0 mb 0.00 in0.0 mm 0.00 in0.0 mm 0.00 in0.0 mm
01:32 AM 34.9°F1.6°C 32.0°F0.0°C 89% 1.6 mph N2.6 kmh N 1.8 mph2.9 kmh 29.50 in999.0 mb 0.00 in0.0 mm 0.00 in0.0 mm 0.00 in0.0 mm
01:27 AM 34.9°F1.6°C 32.0°F0.0°C 89% 1.4 mph 2.3 kmh 2.0 mph3.2 kmh 29.51 in999.3 mb 0.00 in0.0 mm 0.00 in0.0 mm 0.00 in0.0 mm
01:22 AM 34.9°F1.6°C 32.0°F0.0°C 89% 0.8 mph N1.3 kmh N 2.0 mph3.2 kmh 29.51 in999.3 mb 0.00 in0.0 mm 0.00 in0.0 mm 0.00 in0.0 mm
01:17 AM 34.9°F1.6°C 32.0°F0.0°C 89% 0.9 mph NNE1.4 kmh NNE 1.6 mph2.6 kmh 29.52 in999.7 mb 0.00 in0.0 mm 0.00 in0.0 mm 0.00 in0.0 mm
01:12 AM 34.9°F1.6°C 32.0°F0.0°C 89% 1.3 mph N2.1 kmh N 2.7 mph4.3 kmh 29.52 in999.7 mb 0.00 in0.0 mm 0.00 in0.0 mm 0.00 in0.0 mm
01:07 AM 34.9°F1.6°C 32.0°F0.0°C 89% 0.8 mph NNE1.3 kmh NNE 2.7 mph4.3 kmh 29.52 in999.7 mb 0.00 in0.0 mm 0.00 in0.0 mm 0.00 in0.0 mm
01:02 AM 34.9°F1.6°C 32.2°F0.1°C 90% 1.1 mph N1.8 kmh N 2.0 mph3.2 kmh 29.52 in999.7 mb 0.00 in0.0 mm 0.00 in0.0 mm 0.00 in0.0 mm
12:57 AM 34.9°F1.6°C 32.2°F0.1°C 90% 0.9 mph N1.4 kmh N 2.5 mph4.0 kmh 29.52 in999.7 mb 0.00 in0.0 mm 0.00 in0.0 mm 0.00 in0.0 mm
12:52 AM 34.9°F1.6°C 32.2°F0.1°C 90% 1.7 mph N2.7 kmh N 2.5 mph4.0 kmh 29.53 in1000.0 mb 0.00 in0.0 mm 0.00 in0.0 mm 0.00 in0.0 mm
12:47 AM 34.9°F1.6°C 32.5°F0.3°C 91% 1.3 mph N2.1 kmh N 2.2 mph3.5 kmh 29.53 in1000.0 mb 0.00 in0.0 mm 0.00 in0.0 mm 0.00 in0.0 mm
12:41 AM 34.7°F1.5°C 32.6°F0.3°C 92% 1.7 mph N2.7 kmh N 2.0 mph3.2 kmh 29.54 in1000.3 mb 0.00 in0.0 mm 0.00 in0.0 mm 0.00 in0.0 mm
12:36 AM 34.6°F1.4°C 32.4°F0.2°C 92% 1.0 mph NNE1.6 kmh NNE 1.6 mph2.6 kmh 29.54 in1000.3 mb 0.00 in0.0 mm 0.00 in0.0 mm 0.00 in0.0 mm
12:31 AM 34.6°F1.4°C 32.4°F0.2°C 92% 1.1 mph NNE1.8 kmh NNE 3.1 mph5.0 kmh 29.54 in1000.3 mb 0.00 in0.0 mm 0.00 in0.0 mm 0.00 in0.0 mm
12:26 AM 34.4°F1.3°C 32.2°F0.1°C 92% 1.4 mph N2.3 kmh N 3.1 mph5.0 kmh 29.54 in1000.3 mb 0.00 in0.0 mm 0.00 in0.0 mm 0.00 in0.0 mm
12:21 AM 34.2°F1.2°C 32.3°F0.2°C 93% 1.2 mph N1.9 kmh N 2.2 mph3.5 kmh 29.54 in1000.3 mb 0.00 in0.0 mm 0.00 in0.0 mm 0.00 in0.0 mm
12:16 AM 34.0°F1.1°C 32.1°F0.1°C 93% 1.3 mph N2.1 kmh N 2.0 mph3.2 kmh 29.54 in1000.3 mb 0.00 in0.0 mm 0.00 in0.0 mm 0.00 in0.0 mm
12:11 AM 33.8°F1.0°C 32.0°F0.0°C 93% 1.3 mph N2.1 kmh N 1.8 mph2.9 kmh 29.55 in1000.7 mb 0.00 in0.0 mm 0.00 in0.0 mm 0.00 in0.0 mm
12:06 AM 33.7°F0.9°C 31.8°F-0.1°C 93% 1.0 mph N1.6 kmh N 2.5 mph4.0 kmh 29.55 in1000.7 mb 0.00 in0.0 mm 0.00 in0.0 mm 0.00 in0.0 mm
12:01 AM 33.7°F0.9°C 31.8°F-0.1°C 93% 0.9 mph NNE1.4 kmh NNE 2.5 mph4.0 kmh 29.55 in1000.7 mb 0.00 in0.0 mm 0.00 in0.0 mm 0.00 in0.0 mm